Time;durP1;ratioP1;P1;durP2;ratioP2;P2;SDS_P1;SDS_P2;PMS_P1;PMS_P2;Temp;Humidity;BMP_temperature;BMP_pressure;BME280_temperature;BME280_humidity;BME280_pressure;Samples;Min_cycle;Max_cycle;Signal;HPM_P1;HPM_P2
2024/01/06 00:04:41;;;;;;;16.57;14.27;;;5.00;99.90;;;5.75;100.00;96733.41;10491538;28;20223;-66
2024/01/06 00:09:45;;;;;;;16.23;13.47;;;5.00;99.90;;;5.73;100.00;96751.09;10491620;28;20457;-66
2024/01/06 00:14:49;;;;;;;12.37;11.17;;;5.00;99.90;;;5.68;100.00;96749.94;10492266;28;20242;-66
2024/01/06 00:19:53;;;;;;;12.30;10.93;;;5.00;99.90;;;5.73;100.00;96748.56;10491901;28;20252;-66
2024/01/06 00:24:56;;;;;;;14.13;10.93;;;5.00;99.90;;;5.75;100.00;96738.47;10484858;28;20224;-66
2024/01/06 00:30:01;;;;;;;15.20;11.67;;;5.00;99.90;;;5.70;100.00;96750.91;10491428;28;20228;-67
2024/01/06 00:35:05;;;;;;;12.50;11.30;;;5.00;99.90;;;5.70;100.00;96753.44;10458853;28;20230;-66
2024/01/06 00:40:09;;;;;;;12.73;11.13;;;5.00;99.90;;;5.71;100.00;96760.25;10441198;28;20638;-67
2024/01/06 00:45:13;;;;;;;10.50;9.53;;;5.00;99.90;;;5.72;100.00;96753.50;10490003;28;20228;-67
2024/01/06 00:50:19;;;;;;;11.03;9.93;;;5.00;99.90;;;5.72;100.00;96764.53;10491149;28;20317;-66
2024/01/06 00:55:23;;;;;;;16.10;13.80;;;5.00;99.90;;;5.74;100.00;96762.97;10464221;28;20554;-66
2024/01/06 01:00:27;;;;;;;24.83;18.50;;;5.00;99.90;;;5.70;100.00;96765.25;10407722;28;20230;-66
2024/01/06 01:05:31;;;;;;;15.13;12.17;;;5.00;99.90;;;5.68;100.00;96762.63;10470151;28;20750;-66
2024/01/06 01:10:34;;;;;;;12.70;11.40;;;5.00;99.90;;;5.73;100.00;96760.34;10490273;28;20787;-66
2024/01/06 01:15:38;;;;;;;12.93;10.27;;;5.00;99.90;;;5.74;100.00;96765.50;10486240;28;20635;-66
2024/01/06 01:20:42;;;;;;;11.20;10.10;;;5.00;99.90;;;5.71;100.00;96778.00;10483667;28;20236;-66
2024/01/06 01:25:45;;;;;;;12.20;9.67;;;4.90;99.90;;;5.65;100.00;96773.44;10491200;28;20335;-66
2024/01/06 01:30:50;;;;;;;9.53;8.67;;;4.90;99.90;;;5.66;100.00;96784.47;10483966;28;20251;-66
2024/01/06 01:35:53;;;;;;;10.27;8.67;;;4.90;99.90;;;5.61;100.00;96780.81;10486245;28;20810;-66
2024/01/06 01:40:56;;;;;;;9.80;8.80;;;4.90;99.90;;;5.56;100.00;96794.88;10490973;28;20227;-67
2024/01/06 01:46:01;;;;;;;9.60;8.60;;;4.80;99.90;;;5.59;100.00;96797.56;10484300;28;20330;-66
2024/01/06 01:51:05;;;;;;;9.40;8.50;;;4.80;99.90;;;5.50;100.00;96807.19;10488782;28;20227;-66
2024/01/06 01:56:08;;;;;;;10.27;8.80;;;4.80;99.90;;;5.52;100.00;96800.50;10420883;28;20522;-65
2024/01/06 02:01:13;;;;;;;9.60;8.70;;;4.80;99.90;;;5.54;100.00;96806.56;10404745;28;20233;-65
2024/01/06 02:06:17;;;;;;;11.87;10.10;;;4.80;99.90;;;5.51;100.00;96803.84;10406243;28;20225;-66
2024/01/06 02:11:20;;;;;;;11.57;10.13;;;4.80;99.90;;;5.49;100.00;96805.41;10432727;28;20604;-65
2024/01/06 02:16:24;;;;;;;11.37;9.87;;;4.80;99.90;;;5.49;100.00;96815.53;10484290;28;20612;-66
2024/01/06 02:21:29;;;;;;;10.03;9.10;;;4.80;99.90;;;5.43;100.00;96816.03;10431545;28;20241;-66
2024/01/06 02:26:34;;;;;;;10.30;9.13;;;4.70;99.90;;;5.43;100.00;96814.38;10406523;28;20247;-66
2024/01/06 02:31:37;;;;;;;9.97;8.60;;;4.70;99.90;;;5.46;100.00;96828.03;10410942;28;20257;-66
2024/01/06 02:36:40;;;;;;;9.67;8.80;;;4.70;99.90;;;5.40;100.00;96826.88;10406400;28;20279;-66
2024/01/06 02:41:45;;;;;;;9.80;8.60;;;4.70;99.90;;;5.41;100.00;96837.91;10403904;28;20234;-64
2024/01/06 02:46:48;;;;;;;10.10;8.63;;;4.60;99.90;;;5.32;100.00;96848.38;10401673;28;20343;-66
2024/01/06 02:51:51;;;;;;;9.67;8.77;;;4.60;99.90;;;5.36;100.00;96855.34;10398798;28;20230;-66
2024/01/06 02:56:57;;;;;;;10.27;9.23;;;4.60;99.90;;;5.23;100.00;96850.31;10402879;28;20228;-67
2024/01/06 03:02:00;;;;;;;9.27;8.40;;;4.50;99.90;;;5.22;100.00;96840.97;10414419;28;20713;-66
2024/01/06 03:07:03;;;;;;;10.30;9.17;;;4.50;99.90;;;5.30;100.00;96844.00;10452750;28;20224;-66
2024/01/06 03:12:08;;;;;;;9.43;8.53;;;4.60;99.90;;;5.31;100.00;96844.06;10463977;28;20314;-66
2024/01/06 03:17:11;;;;;;;11.03;8.50;;;4.60;99.90;;;5.28;100.00;96846.41;10449130;28;20229;-66
2024/01/06 03:22:15;;;;;;;10.33;9.33;;;4.60;99.90;;;5.25;100.00;96852.97;10445542;28;20229;-67
2024/01/06 03:27:19;;;;;;;10.17;9.17;;;4.60;99.90;;;5.17;100.00;96860.06;10452081;28;20235;-66
2024/01/06 03:32:24;;;;;;;9.53;8.63;;;4.50;99.90;;;5.17;100.00;96847.41;10452063;28;20347;-67
2024/01/06 03:37:27;;;;;;;8.40;6.77;;;4.50;99.90;;;5.16;100.00;96850.75;10456049;28;20650;-66
2024/01/06 03:42:32;;;;;;;7.30;6.60;;;4.40;99.90;;;5.21;100.00;96846.84;10455656;28;20335;-67
2024/01/06 03:47:35;;;;;;;9.70;7.63;;;4.50;99.90;;;5.21;100.00;96846.84;10456290;28;20649;-66
2024/01/06 03:52:38;;;;;;;7.77;7.00;;;4.50;99.90;;;5.21;100.00;96841.78;10455151;28;20305;-65
2024/01/06 03:57:43;;;;;;;7.40;6.80;;;4.50;99.90;;;5.11;100.00;96847.03;10456296;28;20237;-67
2024/01/06 04:02:46;;;;;;;7.43;6.47;;;4.40;99.90;;;5.11;100.00;96852.09;10455435;28;20716;-66
2024/01/06 04:07:49;;;;;;;7.63;6.83;;;4.40;99.90;;;5.05;100.00;96849.19;10456940;28;20850;-66
2024/01/06 04:12:53;;;;;;;9.33;7.20;;;4.40;99.90;;;5.05;100.00;96847.53;10445683;28;20232;-67
2024/01/06 04:17:57;;;;;;;8.90;8.00;;;4.40;99.90;;;5.11;100.00;96858.03;10451612;28;20225;-65
2024/01/06 04:23:00;;;;;;;25.10;15.07;;;4.40;99.90;;;5.11;100.00;96858.03;10454013;28;20224;-65
2024/01/06 04:28:05;;;;;;;34.90;21.63;;;4.30;99.90;;;5.11;100.00;96862.25;10467553;28;21154;-65
2024/01/06 04:33:08;;;;;;;20.87;13.60;;;4.40;99.90;;;5.15;100.00;96871.75;10446420;28;20225;-65
2024/01/06 04:38:12;;;;;;;10.83;9.37;;;4.40;99.90;;;5.05;100.00;96861.88;10468529;28;20319;-66
2024/01/06 04:43:16;;;;;;;9.00;8.10;;;4.30;99.90;;;5.03;100.00;96860.88;10456091;28;20305;-66
2024/01/06 04:48:19;;;;;;;7.20;6.40;;;4.30;99.90;;;5.07;100.00;96865.38;10460919;28;20415;-65
2024/01/06 04:53:23;;;;;;;8.50;7.13;;;4.30;99.90;;;5.03;100.00;96876.06;10462588;28;20255;-65
2024/01/06 04:58:27;;;;;;;9.10;8.03;;;4.30;99.90;;;5.03;100.00;96868.47;10454523;28;20229;-65
2024/01/06 05:03:30;;;;;;;8.97;7.30;;;4.30;99.90;;;5.01;100.00;96883.59;10466282;28;20225;-65
2024/01/06 05:08:33;;;;;;;9.70;8.50;;;4.30;99.90;;;5.05;100.00;96882.13;10445358;28;20261;-65
2024/01/06 05:13:38;;;;;;;8.93;7.53;;;4.30;99.90;;;4.99;100.00;96886.81;10449605;28;20221;-66
2024/01/06 05:18:41;;;;;;;9.90;8.90;;;4.30;99.90;;;5.05;100.00;96893.13;10468299;28;20236;-65
2024/01/06 05:23:44;;;;;;;8.83;7.90;;;4.40;99.90;;;5.05;100.00;96892.25;10448821;28;20229;-66
2024/01/06 05:28:49;;;;;;;7.07;6.37;;;4.30;99.90;;;5.03;100.00;96886.22;10453464;28;20221;-66
2024/01/06 05:33:52;;;;;;;7.87;6.23;;;4.40;99.90;;;5.06;100.00;96896.53;10466239;28;20230;-65
2024/01/06 05:38:55;;;;;;;6.10;5.50;;;4.30;99.90;;;5.06;100.00;96902.47;10456364;28;20239;-65
2024/01/06 05:43:59;;;;;;;7.10;5.87;;;4.30;99.90;;;4.96;100.00;96913.69;10446206;28;20232;-66
2024/01/06 05:49:03;;;;;;;7.93;5.97;;;4.30;99.90;;;4.96;100.00;96912.81;10461794;28;20260;-65
2024/01/06 05:54:06;;;;;;;8.53;7.10;;;4.20;99.90;;;4.97;100.00;96923.03;10458816;28;20233;-65
2024/01/06 05:59:11;;;;;;;6.93;6.10;;;4.30;99.90;;;5.02;100.00;96933.44;10462613;28;20855;-65
2024/01/06 06:04:14;;;;;;;6.43;5.67;;;4.30;99.90;;;5.01;100.00;96938.41;10449091;28;20232;-65
2024/01/06 06:09:17;;;;;;;8.70;4.83;;;4.30;99.90;;;5.05;100.00;96945.44;10444177;28;20454;-65
2024/01/06 06:14:22;;;;;;;6.57;5.27;;;4.30;99.90;;;5.06;100.00;96945.50;10450011;28;20228;-66
2024/01/06 06:19:29;;;;;;;5.40;4.90;;;4.30;99.90;;;5.15;100.00;96950.28;10455637;28;20735;-65
2024/01/06 06:24:32;;;;;;;6.40;5.20;;;4.30;99.90;;;5.09;100.00;96949.91;10457261;28;20704;-65
2024/01/06 06:29:37;;;;;;;6.43;5.77;;;4.30;99.90;;;5.10;100.00;96956.75;10451884;28;20221;-66
2024/01/06 06:34:40;;;;;;;6.10;5.50;;;4.30;99.90;;;5.10;100.00;96969.41;10464016;28;20308;-66
2024/01/06 06:39:44;;;;;;;7.20;5.07;;;4.40;99.90;;;5.08;100.00;96969.28;10465666;28;20317;-65
2024/01/06 06:44:49;;;;;;;5.70;5.10;;;4.40;99.90;;;5.12;100.00;96967.81;10475676;28;20223;-65
2024/01/06 06:49:52;;;;;;;7.20;5.03;;;4.40;99.90;;;5.05;100.00;96976.69;10459313;28;20267;-64
2024/01/06 06:54:56;;;;;;;5.73;5.13;;;4.40;99.90;;;5.09;100.00;96986.22;10459317;28;20221;-65
2024/01/06 07:00:01;;;;;;;6.20;5.60;;;4.40;99.90;;;5.13;100.00;96994.91;10461678;28;20235;-67
2024/01/06 07:05:06;;;;;;;8.70;6.40;;;4.40;99.90;;;5.12;100.00;97005.81;10470371;28;20233;-66
2024/01/06 07:10:10;;;;;;;6.43;5.83;;;4.40;99.90;;;5.08;100.00;97001.34;10464355;28;20316;-66
2024/01/06 07:15:14;;;;;;;6.87;6.27;;;4.40;99.90;;;5.13;100.00;97008.44;10453925;28;20316;-66
2024/01/06 07:20:18;;;;;;;8.10;6.77;;;4.40;99.90;;;5.11;100.00;97015.06;10461387;28;20229;-67
2024/01/06 07:25:21;;;;;;;8.03;7.20;;;4.40;99.90;;;5.11;100.00;97009.13;10466161;28;20591;-67
2024/01/06 07:30:25;;;;;;;7.40;6.63;;;4.40;99.90;;;5.13;100.00;97022.78;10455627;28;20238;-66
2024/01/06 07:35:29;;;;;;;7.40;6.63;;;4.40;99.90;;;5.10;100.00;97017.53;10452406;28;20239;-64
2024/01/06 07:40:32;;;;;;;9.17;8.27;;;4.40;99.90;;;5.18;100.00;97018.88;10453368;28;20826;-66
2024/01/06 07:45:36;;;;;;;9.00;8.20;;;4.40;99.90;;;5.23;100.00;97024.22;10459288;28;20220;-65
2024/01/06 07:50:40;;;;;;;7.10;6.47;;;4.40;99.90;;;5.22;100.00;97023.34;10465667;28;22127;-66
2024/01/06 07:55:43;;;;;;;8.03;7.33;;;4.40;99.90;;;5.08;100.00;97025.00;10468807;28;20277;-66
2024/01/06 08:00:47;;;;;;;13.97;12.50;;;4.40;99.90;;;5.13;100.00;97025.31;10468215;28;20243;-66
2024/01/06 08:05:50;;;;;;;11.33;10.30;;;4.40;99.90;;;5.15;100.00;97026.25;10469013;28;20229;-66
2024/01/06 08:10:54;;;;;;;9.90;8.90;;;4.50;99.90;;;5.25;100.00;97038.75;10465512;28;20644;-66
2024/01/06 08:15:59;;;;;;;7.90;7.07;;;4.50;99.90;;;5.25;100.00;97042.94;10453540;28;20232;-66
2024/01/06 08:21:02;;;;;;;10.73;8.50;;;4.50;99.90;;;5.27;100.00;97039.72;10465207;28;20228;-66
2024/01/06 08:26:06;;;;;;;10.00;9.00;;;4.60;99.90;;;5.34;100.00;97026.66;10464210;28;20256;-66
2024/01/06 08:31:14;;;;;;;10.90;9.80;;;4.60;99.90;;;5.38;100.00;97035.34;10450709;28;20547;-63
2024/01/06 08:36:18;;;;;;;11.33;10.13;;;4.70;99.90;;;5.42;100.00;97040.69;10445497;28;20225;-65
2024/01/06 08:41:21;;;;;;;11.87;10.67;;;4.70;99.90;;;5.47;100.00;97041.00;10459418;28;20641;-65
2024/01/06 08:46:26;;;;;;;10.43;9.53;;;4.80;99.90;;;5.55;100.00;97049.06;10452845;28;20224;-66
2024/01/06 08:51:30;;;;;;;68.70;61.23;;;4.80;99.90;;;5.69;100.00;97065.16;10448609;28;20228;-64
2024/01/06 08:56:35;;;;;;;32.77;29.27;;;4.90;99.90;;;5.82;100.00;97060.06;10455602;28;20225;-64
2024/01/06 09:01:39;;;;;;;10.70;9.13;;;5.00;99.90;;;5.84;100.00;97064.47;10452014;28;20242;-65
2024/01/06 09:06:42;;;;;;;8.63;7.83;;;5.10;99.90;;;5.93;100.00;97065.81;10444828;28;20790;-66
2024/01/06 09:11:46;;;;;;;9.97;9.00;;;5.10;99.90;;;5.94;100.00;97070.13;10450875;28;20680;-65
2024/01/06 09:16:50;;;;;;;11.10;10.00;;;5.10;99.90;;;6.14;100.00;97078.97;10476433;28;20227;-62
2024/01/06 09:21:54;;;;;;;13.27;11.90;;;5.30;99.90;;;5.93;100.00;97086.09;10443442;28;20234;-65
2024/01/06 09:26:57;;;;;;;11.27;9.93;;;5.20;99.90;;;5.95;100.00;97076.94;10448096;28;20233;-64
2024/01/06 09:32:02;;;;;;;16.07;14.40;;;5.20;99.90;;;6.05;100.00;97079.28;10445236;28;20705;-64
2024/01/06 09:37:05;;;;;;;19.93;17.83;;;5.30;99.90;;;6.09;100.00;97086.28;10458023;28;20256;-66
2024/01/06 09:42:08;;;;;;;14.17;12.70;;;5.40;99.90;;;6.16;100.00;97082.47;10453656;28;20324;-66
2024/01/06 09:47:13;;;;;;;13.57;11.63;;;5.40;99.90;;;6.30;100.00;97092.69;10448709;28;20379;-65
2024/01/06 09:52:22;;;;;;;18.73;15.07;;;5.50;99.90;;;6.23;100.00;97089.66;10461307;28;20736;-66
2024/01/06 09:57:25;;;;;;;10.47;9.37;;;5.40;99.90;;;6.26;100.00;97094.91;10465832;28;20250;-64
2024/01/06 10:02:31;;;;;;;10.90;9.80;;;5.40;99.90;;;6.28;100.00;97104.38;10446620;28;20652;-65
2024/01/06 10:07:34;;;;;;;10.63;9.73;;;5.50;99.90;;;6.35;100.00;97103.09;10447180;28;20232;-65
2024/01/06 10:12:39;;;;;;;9.30;8.27;;;5.50;99.90;;;6.37;100.00;97110.81;10480575;28;20599;-65
2024/01/06 10:17:44;;;;;;;9.43;8.53;;;5.60;99.90;;;6.42;100.00;97111.97;10435051;28;20255;-66
2024/01/06 10:22:48;;;;;;;10.00;8.60;;;5.60;99.90;;;6.53;99.88;97098.28;10407679;28;20226;-65
2024/01/06 10:27:53;;;;;;;10.87;9.77;;;5.80;99.90;;;6.63;99.56;97110.72;10402370;28;20234;-65
2024/01/06 10:32:58;;;;;;;10.77;9.70;;;5.90;99.90;;;6.69;98.77;97108.53;10422429;28;20228;-63
2024/01/06 10:38:02;;;;;;;6.00;5.50;;;6.00;99.90;;;6.75;97.39;97106.38;10419618;28;20229;-65
2024/01/06 10:43:06;;;;;;;5.77;5.07;;;6.00;99.90;;;6.89;95.47;97101.22;10465254;28;20680;-65
2024/01/06 10:48:11;;;;;;;4.80;4.33;;;6.10;99.90;;;6.81;94.57;97102.44;10480887;28;20313;-66
2024/01/06 10:53:16;;;;;;;9.30;8.40;;;6.10;99.90;;;6.96;94.81;97093.19;10455491;28;20228;-63
2024/01/06 10:58:19;;;;;;;6.53;5.90;;;6.20;99.90;;;6.90;94.56;97092.84;10490634;28;20251;-66
2024/01/06 11:03:25;;;;;;;5.10;4.70;;;6.20;99.90;;;6.62;94.48;97091.19;10497788;28;20267;-65
2024/01/06 11:08:30;;;;;;;5.03;4.63;;;6.00;99.90;;;6.63;96.05;97089.53;10465587;28;20233;-66
2024/01/06 11:13:34;;;;;;;5.47;5.07;;;6.00;99.90;;;6.72;95.80;97095.16;10486476;28;20224;-66
2024/01/06 11:18:40;;;;;;;5.50;5.00;;;6.00;99.90;;;6.59;95.87;97101.19;10489630;28;20311;-66
2024/01/06 11:23:44;;;;;;;4.97;4.57;;;5.90;99.90;;;6.54;96.17;97100.00;10488689;28;20603;-68
2024/01/06 11:28:48;;;;;;;6.27;5.03;;;5.90;99.90;;;6.41;96.83;97092.44;10491081;28;20303;-66
2024/01/06 11:33:55;;;;;;;5.87;5.17;;;5.80;99.90;;;6.34;98.16;97080.19;10503628;28;20232;-65
2024/01/06 11:39:01;;;;;;;6.60;5.33;;;5.70;99.90;;;6.21;99.03;97084.50;10492292;28;20426;-66
2024/01/06 11:44:05;;;;;;;5.90;5.20;;;5.70;99.90;;;6.07;99.42;97077.72;10507599;28;20229;-68
2024/01/06 11:49:11;;;;;;;5.57;5.07;;;5.50;99.90;;;6.13;100.00;97073.03;10457790;28;20225;-67
2024/01/06 11:54:15;;;;;;;5.97;5.47;;;5.60;99.90;;;6.16;100.00;97082.47;10476605;28;20809;-66
2024/01/06 11:59:18;;;;;;;6.83;6.20;;;5.60;99.90;;;6.21;100.00;97076.00;10488149;28;20236;-66
2024/01/06 12:04:25;;;;;;;7.20;6.50;;;5.60;99.90;;;6.18;100.00;97076.72;10502911;28;20252;-66
2024/01/06 12:09:28;;;;;;;11.33;10.33;;;5.60;99.90;;;6.44;100.00;97067.22;10435631;28;20306;-67
2024/01/06 12:14:32;;;;;;;7.27;6.57;;;5.80;99.90;;;6.17;100.00;97062.25;10489016;28;20246;-66
2024/01/06 12:19:37;;;;;;;7.30;6.70;;;5.60;99.90;;;6.36;100.00;97060.84;10434774;28;20320;-66
2024/01/06 12:24:43;;;;;;;6.97;6.30;;;5.70;99.90;;;6.20;100.00;97054.84;10491969;28;20599;-66
2024/01/06 12:29:46;;;;;;;7.73;7.13;;;5.60;99.90;;;6.32;100.00;97054.69;10490327;28;20236;-65
2024/01/06 12:34:51;;;;;;;8.63;7.63;;;5.70;99.90;;;6.54;100.00;97052.66;10429706;28;20243;-66
2024/01/06 12:39:54;;;;;;;7.00;6.40;;;5.80;99.90;;;6.58;99.63;97053.72;10473788;28;20733;-66
2024/01/06 12:44:57;;;;;;;6.70;6.10;;;5.80;99.90;;;6.47;99.83;97053.09;10419428;28;20302;-66
2024/01/06 12:50:04;;;;;;;6.90;6.30;;;5.70;99.90;;;6.39;100.00;97056.81;10467487;28;20687;-66
2024/01/06 12:55:08;;;;;;;7.40;6.80;;;5.70;99.90;;;6.37;100.00;97054.97;10466650;28;20223;-68
2024/01/06 13:00:13;;;;;;;6.77;6.17;;;5.80;99.90;;;6.43;100.00;97057.88;10447173;28;20229;-66
2024/01/06 13:05:18;;;;;;;9.60;8.53;;;5.70;99.90;;;6.40;100.00;97053.50;10487001;28;20224;-65
2024/01/06 13:10:21;;;;;;;9.60;8.50;;;5.70;99.90;;;6.36;100.00;97065.94;10482207;28;20901;-66
2024/01/06 13:15:24;;;;;;;8.03;7.10;;;5.70;99.90;;;6.25;100.00;97066.13;10464494;28;22840;-66
2024/01/06 13:20:28;;;;;;;11.93;9.57;;;5.60;99.90;;;6.27;100.00;97061.19;10403414;28;20221;-67
2024/01/06 13:25:32;;;;;;;13.97;11.97;;;5.60;99.90;;;6.09;100.00;97065.97;10436964;28;20365;-65
2024/01/06 13:30:36;;;;;;;10.73;9.73;;;5.50;99.90;;;6.19;100.00;97068.31;10451261;28;20232;-69
2024/01/06 13:35:41;;;;;;;8.70;7.90;;;5.50;99.90;;;6.09;100.00;97079.56;10467725;28;20224;-66
2024/01/06 13:40:44;;;;;;;9.90;9.00;;;5.50;99.90;;;6.13;100.00;97077.22;10500292;28;21585;-65
2024/01/06 13:45:48;;;;;;;14.30;11.97;;;5.50;99.90;;;6.17;100.00;97079.16;10495402;28;20234;-66
2024/01/06 13:50:52;;;;;;;10.00;9.10;;;5.60;99.90;;;6.10;100.00;97077.91;10511612;28;20233;-67
2024/01/06 13:55:56;;;;;;;8.90;7.93;;;5.50;99.90;;;6.12;100.00;97078.84;10469706;28;20698;-65
2024/01/06 14:00:59;;;;;;;14.27;12.60;;;5.50;99.90;;;6.20;100.00;97085.28;10410724;28;20596;-66
2024/01/06 14:06:06;;;;;;;11.10;10.10;;;5.60;99.90;;;6.25;100.00;97088.97;10423044;28;20228;-66
2024/01/06 14:11:09;;;;;;;12.57;11.27;;;5.60;99.90;;;6.16;100.00;97100.25;10464448;28;20224;-66
2024/01/06 14:16:12;;;;;;;10.13;9.23;;;5.50;99.90;;;6.18;100.00;97096.09;10435578;28;20230;-65
2024/01/06 14:21:19;;;;;;;9.27;8.40;;;5.50;99.90;;;6.17;100.00;97105.38;10413996;28;20237;-65
2024/01/06 14:26:23;;;;;;;11.40;10.03;;;5.50;99.90;;;6.25;100.00;97108.41;10410944;28;20716;-64
2024/01/06 14:31:27;;;;;;;9.77;8.87;;;5.60;99.90;;;6.19;100.00;97105.50;10497617;28;20235;-65
2024/01/06 14:36:32;;;;;;;9.50;8.70;;;5.50;99.90;;;6.24;100.00;97115.16;10509022;28;20283;-65
2024/01/06 14:41:35;;;;;;;9.30;8.50;;;5.60;99.90;;;6.19;100.00;97113.97;10508268;28;20253;-65
2024/01/06 14:46:38;;;;;;;9.90;9.00;;;5.50;99.90;;;6.22;100.00;97126.84;10498356;28;20223;-66
2024/01/06 14:51:44;;;;;;;12.47;11.37;;;5.50;99.90;;;6.28;100.00;97123.81;10491343;28;20318;-66
2024/01/06 14:56:47;;;;;;;11.10;10.00;;;5.50;99.90;;;6.27;100.00;97135.63;10508358;28;20299;-65
2024/01/06 15:01:50;;;;;;;11.63;10.50;;;5.60;99.90;;;6.19;100.00;97139.34;10529038;28;20614;-67
2024/01/06 15:06:56;;;;;;;10.93;9.93;;;5.50;99.90;;;6.10;100.00;97138.78;10422765;28;20296;-65
2024/01/06 15:11:59;;;;;;;10.23;9.23;;;5.50;99.90;;;6.01;100.00;97136.56;10413942;28;20222;-65
2024/01/06 15:17:02;;;;;;;10.67;9.63;;;5.40;99.90;;;6.07;100.00;97146.22;10411278;28;20224;-67
2024/01/06 15:22:06;;;;;;;10.13;9.13;;;5.40;99.90;;;6.12;100.00;97144.81;10412433;28;20287;-66
2024/01/06 15:27:10;;;;;;;12.27;11.17;;;5.40;99.90;;;6.12;100.00;97141.41;10417709;28;20222;-66
2024/01/06 15:32:13;;;;;;;11.67;10.67;;;5.50;99.90;;;6.16;100.00;97144.25;10408114;28;20717;-66
2024/01/06 15:37:18;;;;;;;11.70;10.60;;;5.50;99.90;;;6.13;100.00;97140.63;10411338;28;20221;-68
2024/01/06 15:42:21;;;;;;;12.37;11.07;;;5.40;99.90;;;6.14;100.00;97139.84;10428702;28;20249;-67
2024/01/06 15:47:24;;;;;;;12.53;11.17;;;5.40;99.90;;;6.13;100.00;97141.50;10439447;28;20224;-66
2024/01/06 15:52:28;;;;;;;12.87;11.60;;;5.40;99.90;;;6.14;100.00;97148.31;10429261;28;20327;-66
2024/01/06 15:57:33;;;;;;;10.77;9.87;;;5.50;99.90;;;6.02;100.00;97145.03;10408373;28;20316;-66
2024/01/06 16:02:36;;;;;;;10.73;9.60;;;5.40;99.90;;;6.04;100.00;97158.69;10411089;28;20308;-67
2024/01/06 16:07:40;;;;;;;11.70;10.60;;;5.40;99.90;;;6.04;100.00;97158.69;10429269;28;20225;-65
2024/01/06 16:12:44;;;;;;;15.73;14.13;;;5.30;99.90;;;6.07;100.00;97172.44;10421145;28;20253;-65
2024/01/06 16:17:47;;;;;;;11.60;10.57;;;5.40;99.90;;;6.05;100.00;97170.59;10433310;28;20233;-65
2024/01/06 16:22:53;;;;;;;14.00;11.97;;;5.30;99.90;;;6.03;100.00;97167.06;10450158;28;20242;-66
2024/01/06 16:27:56;;;;;;;12.70;11.50;;;5.40;99.90;;;6.00;100.00;97166.88;10523643;28;20228;-66
2024/01/06 16:33:00;;;;;;;15.10;13.57;;;5.30;99.90;;;6.03;100.00;97172.16;10502247;28;20224;-64
2024/01/06 16:38:05;;;;;;;12.77;11.60;;;5.30;99.90;;;6.09;100.00;97178.50;10498429;28;20666;-65
2024/01/06 16:43:08;;;;;;;12.47;11.20;;;5.40;99.90;;;6.11;100.00;97177.72;10496076;28;20324;-65
2024/01/06 16:48:11;;;;;;;13.33;12.13;;;5.40;99.90;;;6.10;100.00;97184.44;10499604;28;20280;-65
2024/01/06 16:53:16;;;;;;;16.63;15.03;;;5.40;99.90;;;6.07;100.00;97184.25;10508352;28;21975;-66
2024/01/06 16:58:19;;;;;;;13.50;12.17;;;5.40;99.90;;;6.06;100.00;97202.78;10502083;28;20645;-65
2024/01/06 17:03:22;;;;;;;12.70;11.50;;;5.30;99.90;;;6.05;100.00;97196.81;10499163;28;20238;-65
2024/01/06 17:08:27;;;;;;;12.90;11.70;;;5.40;99.90;;;6.07;100.00;97204.56;10426210;28;20229;-65
2024/01/06 17:13:30;;;;;;;12.83;11.60;;;5.40;99.90;;;6.06;100.00;97210.38;10418362;28;20340;-64
2024/01/06 17:18:33;;;;;;;12.53;11.33;;;5.30;99.90;;;6.05;100.00;97206.97;10421085;28;20774;-66
2024/01/06 17:23:38;;;;;;;11.77;10.57;;;5.40;99.90;;;6.04;100.00;97210.31;10492412;28;20227;-66
2024/01/06 17:28:41;;;;;;;11.27;10.17;;;5.30;99.90;;;6.02;100.00;97210.97;10494895;28;20221;-65
2024/01/06 17:33:44;;;;;;;12.57;11.30;;;5.30;99.90;;;6.04;100.00;97211.97;10500564;28;20232;-67
2024/01/06 17:38:49;;;;;;;13.67;12.37;;;5.30;99.90;;;5.97;100.00;97212.34;10494288;28;20300;-66
2024/01/06 17:43:55;;;;;;;13.97;12.67;;;5.30;99.90;;;5.96;100.00;97218.22;10497421;28;20311;-67
2024/01/06 17:48:59;;;;;;;20.73;18.57;;;5.20;99.90;;;5.95;100.00;97212.25;10491906;28;20657;-66
2024/01/06 17:54:03;;;;;;;20.33;18.23;;;5.20;99.90;;;5.97;100.00;97219.94;10494086;28;20224;-66
2024/01/06 17:59:07;;;;;;;14.27;12.97;;;5.30;99.90;;;6.01;100.00;97225.34;10496758;28;20522;-65
2024/01/06 18:04:10;;;;;;;13.43;12.20;;;5.30;99.90;;;6.04;100.00;97234.81;10491262;28;20242;-66
2024/01/06 18:09:18;;;;;;;16.33;14.70;;;5.40;99.90;;;6.01;100.00;97229.50;10491452;28;20665;-65
2024/01/06 18:14:23;;;;;;;15.93;14.53;;;5.30;99.90;;;6.01;100.00;97232.03;10499417;28;20716;-65
2024/01/06 18:19:26;;;;;;;15.90;14.43;;;5.30;99.90;;;6.02;100.00;97226.19;10449162;28;20286;-67
2024/01/06 18:24:31;;;;;;;15.67;14.23;;;5.30;99.90;;;6.02;100.00;97238.88;10407645;28;20609;-66
2024/01/06 18:29:36;;;;;;;16.53;14.97;;;5.20;99.90;;;6.01;100.00;97235.47;10418060;28;20236;-63
2024/01/06 18:34:42;;;;;;;16.37;14.77;;;5.20;99.90;;;5.90;100.00;97238.06;10429300;28;22248;-66
2024/01/06 18:39:46;;;;;;;14.33;12.93;;;5.20;99.90;;;5.89;100.00;97244.78;10438482;28;20594;-63
2024/01/06 18:44:49;;;;;;;15.77;14.10;;;5.10;99.90;;;5.91;100.00;97247.44;10488934;28;20217;-65
2024/01/06 18:49:53;;;;;;;16.10;13.97;;;5.20;99.90;;;5.90;100.00;97243.16;10412041;28;20935;-65
2024/01/06 18:54:57;;;;;;;24.03;21.63;;;5.20;99.90;;;5.90;100.00;97240.59;10442209;28;20299;-66
2024/01/06 19:00:01;;;;;;;20.23;18.30;;;5.20;99.90;;;5.85;100.00;97232.69;10415402;28;20232;-65
2024/01/06 19:05:04;;;;;;;38.47;31.87;;;5.10;99.90;;;5.82;100.00;97230.84;10443193;28;20900;-67
2024/01/06 19:10:11;;;;;;;41.73;33.50;;;5.10;99.90;;;5.81;100.00;97231.63;10458608;28;20314;-66
2024/01/06 19:15:14;;;;;;;55.93;35.93;;;5.10;99.90;;;5.85;100.00;97228.50;10424575;28;20225;-65
2024/01/06 19:20:18;;;;;;;56.70;35.20;;;5.10;99.90;;;5.79;100.00;97225.56;10411661;28;20237;-66
2024/01/06 19:25:23;;;;;;;30.83;25.90;;;5.00;99.90;;;5.77;100.00;97226.25;10420218;28;20230;-65
2024/01/06 19:30:26;;;;;;;26.90;22.30;;;5.00;99.90;;;5.69;100.00;97220.66;10404085;28;20785;-66
2024/01/06 19:35:31;;;;;;;23.43;20.60;;;5.00;99.90;;;5.68;100.00;97226.53;10403314;28;20225;-66
2024/01/06 19:40:36;;;;;;;21.37;19.27;;;5.00;99.90;;;5.72;100.00;97236.06;10418005;28;20240;-65
2024/01/06 19:45:39;;;;;;;21.03;18.90;;;5.00;99.90;;;5.73;100.00;97230.25;10429046;28;20252;-67
2024/01/06 19:50:42;;;;;;;25.37;22.77;;;5.00;99.90;;;5.70;100.00;97237.66;10481178;28;20254;-65
2024/01/06 19:55:47;;;;;;;22.70;20.50;;;5.00;99.90;;;5.69;100.00;97235.88;10493824;28;20338;-66
2024/01/06 20:00:50;;;;;;;25.13;22.63;;;5.00;99.90;;;5.68;100.00;97244.25;10475554;28;20228;-65
2024/01/06 20:05:53;;;;;;;23.50;20.97;;;5.00;99.90;;;5.63;100.00;97249.03;10416635;28;20225;-66
2024/01/06 20:11:00;;;;;;;21.13;18.93;;;4.90;99.90;;;5.64;100.00;97247.38;10406353;28;20824;-64
2024/01/06 20:16:05;;;;;;;16.00;14.43;;;4.90;99.90;;;5.64;100.00;97247.38;10413374;28;20240;-66
2024/01/06 20:21:12;;;;;;;14.07;12.80;;;4.80;99.90;;;5.53;100.00;97245.81;10490486;28;20322;-65
2024/01/06 20:26:18;;;;;;;12.90;11.80;;;4.80;99.90;;;5.48;100.00;97245.47;10486849;28;20228;-66
2024/01/06 20:31:21;;;;;;;13.50;12.10;;;4.80;99.90;;;5.50;100.00;97243.06;10493598;28;20227;-66
2024/01/06 20:36:24;;;;;;;13.17;11.97;;;4.80;99.90;;;5.53;100.00;97243.25;10486144;28;20221;-67
2024/01/06 20:41:29;;;;;;;14.93;13.40;;;4.80;99.90;;;5.51;100.00;97234.69;10497877;28;20236;-66
2024/01/06 20:46:32;;;;;;;20.57;18.37;;;4.80;99.90;;;5.41;100.00;97234.06;10499440;28;20265;-65
2024/01/06 20:51:35;;;;;;;20.40;18.53;;;4.70;99.90;;;5.39;100.00;97220.41;10498246;28;20236;-65
2024/01/06 20:56:40;;;;;;;22.17;18.53;;;4.70;99.90;;;5.45;100.00;97232.59;10494358;28;20265;-65
2024/01/06 21:01:43;;;;;;;23.10;20.70;;;4.70;99.90;;;5.39;100.00;97233.09;10498836;28;20228;-65
2024/01/06 21:06:47;;;;;;;21.17;18.90;;;4.70;99.90;;;5.46;100.00;97233.47;10500176;28;20312;-65